Home > Products > Valid Products > TAF

000
FTUS43 KILX 041700
TAFSPI
TAF
KSPI 041721Z 0418/0518 32014KT P6SM OVC070
     FM042300 34009KT P6SM SCT120 BKN250
     FM050400 33006KT P6SM SCT250
     FM051300 31009KT P6SM SKC=



000
FTUS43 KILX 041700
TAFDEC
TAF
KDEC 041721Z 0418/0518 32014KT P6SM OVC070
     FM042300 34010KT P6SM SCT120 BKN250
     FM050500 34006KT P6SM SCT250
     FM051300 32008KT P6SM SKC=



000
FTUS43 KILX 041700
TAFPIA
TAF
KPIA 041721Z 0418/0518 33014KT P6SM OVC070
     FM042300 33008KT P6SM SCT120 BKN250
     FM050300 32005KT P6SM SCT250
     FM051200 31008KT P6SM SKC=



000
FTUS43 KILX 041700
TAFCMI
TAF
KCMI 041721Z 0418/0518 32014KT P6SM OVC070
     FM042300 34010KT P6SM SCT120 BKN250
     FM050500 34008KT P6SM SCT250
     FM051400 31010KT P6SM SKC=



000
FTUS43 KILX 041700
TAFBMI
TAF
KBMI 041721Z 0418/0518 33016KT P6SM OVC070
     FM042300 33009KT P6SM SCT120 BKN250
     FM050400 31008KT P6SM SCT250
     FM051300 32010KT P6SM SKC=



000
FTUS43 KILX 041700
TAFBMI
TAF
KBMI 041721Z 0418/0518 33016KT P6SM OVC070
     FM042300 33009KT P6SM SCT120 BKN250
     FM050400 31008KT P6SM SCT250
     FM051300 32010KT P6SM SKC=



000
FTUS43 KILX 041700
TAFSPI
TAF
KSPI 041721Z 0418/0518 32014KT P6SM OVC070
     FM042300 34009KT P6SM SCT120 BKN250
     FM050400 33006KT P6SM SCT250
     FM051300 31009KT P6SM SKC=



000
FTUS43 KILX 041700
TAFDEC
TAF
KDEC 041721Z 0418/0518 32014KT P6SM OVC070
     FM042300 34010KT P6SM SCT120 BKN250
     FM050500 34006KT P6SM SCT250
     FM051300 32008KT P6SM SKC=



000
FTUS43 KILX 041700
TAFCMI
TAF
KCMI 041721Z 0418/0518 32014KT P6SM OVC070
     FM042300 34010KT P6SM SCT120 BKN250
     FM050500 34008KT P6SM SCT250
     FM051400 31010KT P6SM SKC=



000
FTUS43 KILX 041700
TAFPIA
TAF
KPIA 041721Z 0418/0518 33014KT P6SM OVC070
     FM042300 33008KT P6SM SCT120 BKN250
     FM050300 32005KT P6SM SCT250
     FM051200 31008KT P6SM SKC=



000
FTUS43 KILX 041300 AAA
TAFSPI
TAF AMD
KSPI 041352Z 0414/0512 33010G18KT P6SM VCSH OVC080
     FM041600 34013G23KT P6SM BKN060
     FM042300 34008KT P6SM SCT120 BKN250=



000
FTUS43 KILX 041300 AAA
TAFSPI
TAF AMD
KSPI 041352Z 0414/0512 33010G18KT P6SM VCSH OVC080
     FM041600 34013G23KT P6SM BKN060
     FM042300 34008KT P6SM SCT120 BKN250=



000
FTUS43 KILX 041100
TAFDEC
TAF
KDEC 041135Z 0412/0512 33010G18KT P6SM SCT015
     FM041600 34013G23KT P6SM BKN060
     FM042300 34008KT P6SM SCT120 OVC250=



000
FTUS43 KILX 041100
TAFPIA
TAF
KPIA 041135Z 0412/0512 33010G18KT P6SM SCT025 BKN090
     FM042300 33008KT P6SM BKN120
     FM050200 32005KT P6SM BKN250=



000
FTUS43 KILX 041100
TAFCMI
TAF
KCMI 041135Z 0412/0512 32012G17KT P6SM SCT015 BKN090
     FM041600 34013G23KT P6SM SCT025 BKN080
     FM042300 33008KT P6SM SCT120 OVC250=



000
FTUS43 KILX 041100
TAFSPI
TAF
KSPI 041135Z 0412/0512 33010G18KT P6SM SCT080
     FM041500 34013G23KT P6SM BKN060
     FM042300 34008KT P6SM SCT120 BKN250=



000
FTUS43 KILX 041100
TAFBMI
TAF
KBMI 041135Z 0412/0512 33013G23KT P6SM SCT025 BKN080
     FM042300 33012KT P6SM BKN120
     FM050300 31008KT P6SM BKN250=



000
FTUS43 KILX 040800 AAA
TAFCMI
TAF AMD
KCMI 040808Z 0408/0506 32010G18KT P6SM SCT015
     FM040900 32015KT P6SM BKN015
     FM041300 33010G18KT P6SM SCT025 BKN120
     FM042300 33008KT P6SM BKN120=



000
FTUS43 KILX 040800 AAA
TAFCMI
TAF AMD
KCMI 040808Z 0408/0506 32010G18KT P6SM SCT015
     FM040900 32015KT P6SM BKN015
     FM041300 33010G18KT P6SM SCT025 BKN120
     FM042300 33008KT P6SM BKN120=



000
FTUS43 KILX 040800 AAA
TAFSPI
TAF AMD
KSPI 040807Z 0408/0506 32015KT P6SM BKN015
     FM041000 33010G18KT P6SM SCT025 BKN120
     FM042300 33008KT P6SM BKN120=



000
FTUS43 KILX 040800 AAA
TAFPIA
TAF AMD
KPIA 040806Z 0408/0506 32015KT P6SM SCT025
     FM040900 33010G18KT P6SM SCT025 BKN120
     FM042300 33008KT P6SM BKN120=



000
FTUS43 KILX 040800 AAA
TAFBMI
TAF AMD
KBMI 040805Z 0408/0506 32012G20KT P6SM OVC012
     FM041100 33012G20KT P6SM SCT025 BKN120
     FM042300 33008KT P6SM BKN120=



000
FTUS43 KILX 040800 AAA
TAFBMI
TAF AMD
KBMI 040805Z 0408/0506 32012G20KT P6SM OVC012
     FM041100 33012G20KT P6SM SCT025 BKN120
     FM042300 33008KT P6SM BKN120=



000
FTUS43 KILX 040500
TAFCMI
TAF
KCMI 040540Z 0406/0506 29008KT P6SM SCT025 BKN120
     FM040800 32010G18KT P6SM BKN025
     FM041300 33010G18KT P6SM SCT025 BKN120
     FM042300 33008KT P6SM BKN120=



000
FTUS43 KILX 040500
TAFSPI
TAF
KSPI 040540Z 0406/0506 32010KT P6SM SCT025 BKN120
     FM040700 32010G18KT P6SM BKN025
     FM041000 33010G18KT P6SM SCT025 BKN120
     FM042300 33008KT P6SM BKN120=



000
FTUS43 KILX 040500
TAFDEC
TAF
KDEC 040540Z 0406/0506 31010KT P6SM SCT025 BKN120
     FM040800 32010G18KT P6SM BKN025
     FM041100 33010G18KT P6SM SCT025 BKN120
     FM042300 33008KT P6SM BKN120=



000
FTUS43 KILX 040500
TAFPIA
TAF
KPIA 040540Z 0406/0506 32010G18KT P6SM BKN025
     FM040900 33010G18KT P6SM SCT025 BKN120
     FM042300 33008KT P6SM BKN120=



000
FTUS43 KILX 040500
TAFBMI
TAF
KBMI 040540Z 0406/0506 32012KT P6SM SCT025 BKN120
     FM040700 32012G20KT P6SM BKN025
     FM041100 33012G20KT P6SM SCT025 BKN120
     FM042300 33008KT P6SM BKN120=



000
FTUS43 KILX 040500
TAFDEC
TAF
KDEC 040540Z 0406/0506 31010KT P6SM SCT025 BKN120
     FM040800 32010G18KT P6SM BKN025
     FM041100 33010G18KT P6SM SCT025 BKN120
     FM042300 33008KT P6SM BKN120=



000
FTUS43 KILX 040500
TAFCMI
TAF
KCMI 040540Z 0406/0506 29008KT P6SM SCT025 BKN120
     FM040800 32010G18KT P6SM BKN025
     FM041300 33010G18KT P6SM SCT025 BKN120
     FM042300 33008KT P6SM BKN120=



000
FTUS43 KILX 040500
TAFBMI
TAF
KBMI 040540Z 0406/0506 32012KT P6SM SCT025 BKN120
     FM040700 32012G20KT P6SM BKN025
     FM041100 33012G20KT P6SM SCT025 BKN120
     FM042300 33008KT P6SM BKN120=



000
FTUS43 KILX 040500
TAFPIA
TAF
KPIA 040540Z 0406/0506 32010G18KT P6SM BKN025
     FM040900 33010G18KT P6SM SCT025 BKN120
     FM042300 33008KT P6SM BKN120=



000
FTUS43 KILX 040500
TAFSPI
TAF
KSPI 040540Z 0406/0506 32010KT P6SM SCT025 BKN120
     FM040700 32010G18KT P6SM BKN025
     FM041000 33010G18KT P6SM SCT025 BKN120
     FM042300 33008KT P6SM BKN120=



000
FTUS43 KILX 040400 AAA
TAFCMI
TAF AMD
KCMI 040411Z 0404/0424 29010KT P6SM SCT025 BKN120
     FM040700 32010G18KT P6SM BKN025
     FM041400 33012G20KT P6SM SCT025 BKN120=



000
FTUS43 KILX 040400 AAB
TAFSPI
TAF AMD
KSPI 040410Z 0404/0424 32010KT P6SM SCT025 BKN120
     FM040600 32010G18KT P6SM OVC025
     FM041300 33012G20KT P6SM SCT025 BKN120=



000
FTUS43 KILX 040400 AAB
TAFDEC
TAF AMD
KDEC 040410Z 0404/0424 32010KT P6SM SCT025 BKN120
     FM040700 32010G18KT P6SM BKN025
     FM041300 33012G20KT P6SM SCT025 BKN120=



000
FTUS43 KILX 040400 AAB
TAFDEC
TAF AMD
KDEC 040410Z 0404/0424 32010KT P6SM SCT025 BKN120
     FM040700 32010G18KT P6SM BKN025
     FM041300 33012G20KT P6SM SCT025 BKN120=



000
FTUS43 KILX 040400 AAB
TAFBMI
TAF AMD
KBMI 040409Z 0404/0424 32012KT P6SM SCT025 BKN120
     FM040700 32012G20KT P6SM OVC025
     FM041300 33014G24KT P6SM SCT025 BKN120=



000
FTUS43 KILX 040400 AAB
TAFBMI
TAF AMD
KBMI 040409Z 0404/0424 32012KT P6SM SCT025 BKN120
     FM040700 32012G20KT P6SM OVC025
     FM041300 33014G24KT P6SM SCT025 BKN120=



000
FTUS43 KILX 040400 AAA
TAFPIA
TAF AMD
KPIA 040408Z 0404/0424 32008KT P6SM SCT025 BKN120
     FM040600 32010G18KT P6SM BKN025
     FM041100 33012G20KT P6SM SCT025 BKN120=



000
FTUS43 KILX 040400 AAA
TAFPIA
TAF AMD
KPIA 040408Z 0404/0424 32008KT P6SM SCT025 BKN120
     FM040600 32010G18KT P6SM BKN025
     FM041100 33012G20KT P6SM SCT025 BKN120=



000
FTUS43 KILX 040100 AAA
TAFDEC
TAF AMD
KDEC 040109Z 0401/0424 29010KT P6SM OVC010
     FM040200 29010KT P6SM OVC015
     FM040400 29010KT P6SM OVC025
     FM040600 32010G18KT P6SM OVC025
     FM041300 33012G20KT P6SM SCT025 BKN120=



000
FTUS43 KILX 040100 AAA
TAFDEC
TAF AMD
KDEC 040109Z 0401/0424 29010KT P6SM OVC010
     FM040200 29010KT P6SM OVC015
     FM040400 29010KT P6SM OVC025
     FM040600 32010G18KT P6SM OVC025
     FM041300 33012G20KT P6SM SCT025 BKN120=



000
FTUS43 KILX 040000 AAA
TAFSPI
TAF AMD
KSPI 040057Z 0401/0424 29010KT P6SM OVC015
     FM040300 29010KT P6SM OVC025
     FM040500 32010G18KT P6SM OVC025
     FM041300 33012G20KT P6SM SCT025 BKN120=



000
FTUS43 KILX 040000 AAA
TAFSPI
TAF AMD
KSPI 040057Z 0401/0424 29010KT P6SM OVC015
     FM040300 29010KT P6SM OVC025
     FM040500 32010G18KT P6SM OVC025
     FM041300 33012G20KT P6SM SCT025 BKN120=



000
FTUS43 KILX 040000 AAA
TAFBMI
TAF AMD
KBMI 040053Z 0401/0424 29012KT P6SM OVC015
     FM040200 29012KT P6SM OVC025
     FM040600 32012G20KT P6SM OVC025
     FM041300 33014G24KT P6SM SCT025 BKN120=



000
FTUS43 KILX 040000 AAA
TAFBMI
TAF AMD
KBMI 040053Z 0401/0424 29012KT P6SM OVC015
     FM040200 29012KT P6SM OVC025
     FM040600 32012G20KT P6SM OVC025
     FM041300 33014G24KT P6SM SCT025 BKN120=



000
FTUS43 KILX 032300 RRA
TAFDEC
TAF
KDEC 032343Z 0400/0424 27010KT 5SM BR OVC007
     FM040200 29010KT 4SM BR OVC015
     FM040400 29010KT P6SM OVC025
     FM040600 32010G18KT P6SM OVC025
     FM041300 33012G20KT P6SM SCT025 BKN120=



000
FTUS43 KILX 032300 RRA
TAFPIA
TAF
KPIA 032343Z 0400/0424 28010KT P6SM OVC025
     FM040500 32010G18KT P6SM OVC025
     FM041100 33012G20KT P6SM SCT025 BKN120=



000
FTUS43 KILX 032300 RRA
TAFDEC
TAF
KDEC 032343Z 0400/0424 27010KT 5SM BR OVC007
     FM040200 29010KT 4SM BR OVC015
     FM040400 29010KT P6SM OVC025
     FM040600 32010G18KT P6SM OVC025
     FM041300 33012G20KT P6SM SCT025 BKN120=



000
FTUS43 KILX 032300 RRA
TAFPIA
TAF
KPIA 032343Z 0400/0424 28010KT P6SM OVC025
     FM040500 32010G18KT P6SM OVC025
     FM041100 33012G20KT P6SM SCT025 BKN120=



000
FTUS43 KILX 032300 RRA
TAFCMI
TAF
KCMI 032343Z 0400/0424 27010KT 3SM BR SCT007 OVC015
     FM040400 29010KT P6SM OVC025
     FM040700 32010G18KT P6SM OVC025
     FM041400 33012G20KT P6SM SCT025 BKN120=



000
FTUS43 KILX 032300 RRA
TAFSPI
TAF
KSPI 032343Z 0400/0424 28010KT 2SM BR OVC007
     FM040100 29010KT 4SM BR OVC015
     FM040300 29010KT P6SM OVC025
     FM040500 32010G18KT P6SM OVC025
     FM041300 33012G20KT P6SM SCT025 BKN120=



000
FTUS43 KILX 032300 RRA
TAFBMI
TAF
KBMI 032343Z 0400/0424 28012KT 5SM BR OVC015
     FM040200 29012KT P6SM OVC025
     FM040600 32012G20KT P6SM OVC025
     FM041300 33014G24KT P6SM SCT025 BKN120=



000
FTUS43 KILX 032300 RRA
TAFCMI
TAF
KCMI 032343Z 0400/0424 27010KT 3SM BR SCT007 OVC015
     FM040400 29010KT P6SM OVC025
     FM040700 32010G18KT P6SM OVC025
     FM041400 33012G20KT P6SM SCT025 BKN120=



000
FTUS43 KILX 032300 RRA
TAFSPI
TAF
KSPI 032343Z 0400/0424 28010KT 2SM BR OVC007
     FM040100 29010KT 4SM BR OVC015
     FM040300 29010KT P6SM OVC025
     FM040500 32010G18KT P6SM OVC025
     FM041300 33012G20KT P6SM SCT025 BKN120=



000
FTUS43 KILX 032300 RRA
TAFBMI
TAF
KBMI 032343Z 0400/0424 28012KT 5SM BR OVC015
     FM040200 29012KT P6SM OVC025
     FM040600 32012G20KT P6SM OVC025
     FM041300 33014G24KT P6SM SCT025 BKN120=



000
FTUS43 KILX 032200 AAB
TAFCMI
TAF AMD
KCMI 032202Z 0322/0418 25012KT 2SM BR OVC012
     FM040300 29014KT P6SM OVC020
     FM040800 33014KT P6SM SCT020=



000
FTUS43 KILX 032200 AAA
TAFDEC
TAF AMD
KDEC 032201Z 0322/0418 26010KT 4SM BR OVC008
     FM040000 28010KT 5SM BR OVC012
     FM040300 29015KT P6SM OVC020
     FM040700 32012KT P6SM SCT020=



000
FTUS43 KILX 032200 AAA
TAFDEC
TAF AMD
KDEC 032201Z 0322/0418 26010KT 4SM BR OVC008
     FM040000 28010KT 5SM BR OVC012
     FM040300 29015KT P6SM OVC020
     FM040700 32012KT P6SM SCT020=



000
FTUS43 KILX 032100 AAA
TAFSPI
TAF AMD
KSPI 032200Z 0322/0418 26010KT 4SM BR OVC015
     FM040200 29015KT P6SM OVC020
     FM040600 32012KT P6SM SCT020=



000
FTUS43 KILX 032100 AAA
TAFSPI
TAF AMD
KSPI 032200Z 0322/0418 26010KT 4SM BR OVC015
     FM040200 29015KT P6SM OVC020
     FM040600 32012KT P6SM SCT020=



000
FTUS43 KILX 032100 AAA
TAFPIA
TAF AMD
KPIA 032156Z 0322/0418 28013G18KT P6SM OVC015
     FM040200 30013KT P6SM OVC020
     FM040600 33010KT P6SM SCT020=



000
FTUS43 KILX 032100 AAA
TAFPIA
TAF AMD
KPIA 032156Z 0322/0418 28013G18KT P6SM OVC015
     FM040200 30013KT P6SM OVC020
     FM040600 33010KT P6SM SCT020=



000
FTUS43 KILX 032100 AAA
TAFBMI
TAF AMD
KBMI 032115Z 0321/0418 25016KT 2SM BR VCSH BKN003 OVC012
     FM032300 25016KT P6SM OVC006
     FM040300 30016KT P6SM OVC020
     FM040600 32014KT P6SM SCT020=



000
FTUS43 KILX 031900 AAA
TAFCMI
TAF AMD
KCMI 031939Z 0320/0418 23015KT 1SM -RA BR OVC004
      TEMPO 0320/0321 1/4SM FG VV002
     FM032200 24016G22KT 3SM -RA BR BKN006 OVC012
     FM032300 25014G22KT 4SM -DZ BR SCT006 OVC015
     FM040400 29014KT P6SM OVC020
     FM040800 33014KT P6SM SCT020=



000
FTUS43 KILX 031700
TAFSPI
TAF
KSPI 031734Z 0318/0418 20014G22KT 1 1/2SM BR VCSH OVC004
     FM032000 23014G20KT 3SM BR BKN008 OVC015
     FM032100 25013G21KT 5SM BR OVC015
     FM040200 29015KT P6SM OVC020
     FM040600 32012KT P6SM SCT020=



000
FTUS43 KILX 031700
TAFBMI
TAF
KBMI 031734Z 0318/0418 22020G26KT 1 1/2SM BR VCSH OVC003
     FM032000 23018G24KT 2SM BR VCSH BKN006 OVC015
     FM032200 24016G23KT P6SM OVC012
     FM040300 30016KT P6SM OVC020
     FM040600 32014KT P6SM SCT020=



000
FTUS43 KILX 031700
TAFCMI
TAF
KCMI 031734Z 0318/0418 19018KT 1SM -RA BR OVC004
     FM032200 24018G22KT 3SM -RA BR BKN006 OVC012
     FM032300 25014G22KT 4SM -DZ BR SCT006 OVC015
     FM040400 29014KT P6SM OVC020
     FM040800 33014KT P6SM SCT020=



000
FTUS43 KILX 031700
TAFDEC
TAF
KDEC 031734Z 0318/0418 21016KT 1 1/2SM BR VCSH OVC004
      TEMPO 0318/0319 3/4SM -DZ BR
     FM032100 24015G22KT 3SM -DZ BR BKN006 OVC015
     FM032200 25013G21KT 5SM BR OVC015
     FM040300 29015KT P6SM OVC020
     FM040700 32012KT P6SM SCT020=



000
FTUS43 KILX 031700
TAFPIA
TAF
KPIA 031734Z 0318/0418 20014KT 1 1/2SM BR OVC004
     FM032000 23016G22KT 2SM BR BKN007 OVC015
     FM032100 25013G19KT P6SM OVC015
     FM040200 30013KT P6SM OVC020
     FM040600 33010KT P6SM SCT020=



000
FTUS43 KILX 031700
TAFPIA
TAF
KPIA 031734Z 0318/0418 20014KT 1 1/2SM BR OVC004
     FM032000 23016G22KT 2SM BR BKN007 OVC015
     FM032100 25013G19KT P6SM OVC015
     FM040200 30013KT P6SM OVC020
     FM040600 33010KT P6SM SCT020=



000
FTUS43 KILX 031700
TAFBMI
TAF
KBMI 031734Z 0318/0418 22020G26KT 1 1/2SM BR VCSH OVC003
     FM032000 23018G24KT 2SM BR VCSH BKN006 OVC015
     FM032200 24016G23KT P6SM OVC012
     FM040300 30016KT P6SM OVC020
     FM040600 32014KT P6SM SCT020=



000
FTUS43 KILX 031700
TAFCMI
TAF
KCMI 031734Z 0318/0418 19018KT 1SM -RA BR OVC004
     FM032200 24018G22KT 3SM -RA BR BKN006 OVC012
     FM032300 25014G22KT 4SM -DZ BR SCT006 OVC015
     FM040400 29014KT P6SM OVC020
     FM040800 33014KT P6SM SCT020=



000
FTUS43 KILX 031700
TAFDEC
TAF
KDEC 031734Z 0318/0418 21016KT 1 1/2SM BR VCSH OVC004
      TEMPO 0318/0319 3/4SM -DZ BR
     FM032100 24015G22KT 3SM -DZ BR BKN006 OVC015
     FM032200 25013G21KT 5SM BR OVC015
     FM040300 29015KT P6SM OVC020
     FM040700 32012KT P6SM SCT020=



000
FTUS43 KILX 031700
TAFSPI
TAF
KSPI 031734Z 0318/0418 20014G22KT 1 1/2SM BR VCSH OVC004
     FM032000 23014G20KT 3SM BR BKN008 OVC015
     FM032100 25013G21KT 5SM BR OVC015
     FM040200 29015KT P6SM OVC020
     FM040600 32012KT P6SM SCT020=



000
FTUS43 KILX 031600 AAB
TAFCMI
TAF AMD
KCMI 031621Z 0316/0412 18018KT 2SM -DZ BR OVC004
     FM032000 19018G22KT 3SM -RA BR BKN006 OVC012
     FM032300 24014G22KT 4SM -DZ BR SCT006 OVC015
     FM040400 29016KT P6SM OVC020=



000
FTUS43 KILX 031600 AAB
TAFDEC
TAF AMD
KDEC 031619Z 0316/0412 19018KT 2SM -DZ BR OVC004
     FM032000 19018G22KT 3SM -DZ BR BKN006 OVC015
     FM032200 25013G21KT 5SM BR OVC015
     FM040300 29015KT P6SM OVC020=



000
FTUS43 KILX 031600 AAB
TAFPIA
TAF AMD
KPIA 031615Z 0316/0412 20015KT 1 1/2SM BR OVC004
     FM031900 20016G22KT 2SM BR BKN007 OVC015
     FM032100 25013G19KT P6SM OVC015
     FM040200 30013KT P6SM OVC020=



000
FTUS43 KILX 031600 AAB
TAFPIA
TAF AMD
KPIA 031615Z 0316/0412 20015KT 1 1/2SM BR OVC004
     FM031900 20016G22KT 2SM BR BKN007 OVC015
     FM032100 25013G19KT P6SM OVC015
     FM040200 30013KT P6SM OVC020=



000
FTUS43 KILX 031500 AAB
TAFBMI
TAF AMD
KBMI 031533Z 0316/0412 19017KT 2SM -FZDZ BR OVC005
      TEMPO 0316/0317 1/2SM -FZRA FG OVC003
     FM031700 18013G21KT 2SM -DZ BR OVC006
     FM031800 19016G23KT 3SM -DZ BR BKN006 OVC015
     FM032200 24016G23KT P6SM OVC012
     FM040300 30016KT P6SM OVC020=



000
FTUS43 KILX 031500 AAB
TAFBMI
TAF AMD
KBMI 031533Z 0316/0412 19017KT 2SM -FZDZ BR OVC005
      TEMPO 0316/0317 1/2SM -FZRA FG OVC003
     FM031700 18013G21KT 2SM -DZ BR OVC006
     FM031800 19016G23KT 3SM -DZ BR BKN006 OVC015
     FM032200 24016G23KT P6SM OVC012
     FM040300 30016KT P6SM OVC020=



000
FTUS43 KILX 031300 CCA
TAFBMI
TAF COR
KBMI 031348Z 0314/0412 17017KT 3SM -FZDZ BR OVC005
      TEMPO 0314/0316 1 1/2SM -FZRA BR
     FM031600 18013G21KT 2SM -FZDZ BR OVC006
     FM031700 19016G23KT 3SM -DZ BR BKN006 OVC015
     FM032200 24016G23KT P6SM OVC012
     FM040300 30016KT P6SM OVC020=



000
FTUS43 KILX 031300 CCA
TAFBMI
TAF COR
KBMI 031348Z 0314/0412 17017KT 3SM -FZDZ BR OVC005
      TEMPO 0314/0316 1 1/2SM -FZRA BR
     FM031600 18013G21KT 2SM -FZDZ BR OVC006
     FM031700 19016G23KT 3SM -DZ BR BKN006 OVC015
     FM032200 24016G23KT P6SM OVC012
     FM040300 30016KT P6SM OVC020=



000
FTUS43 KILX 031300 AAA
TAFCMI
TAF AMD
KCMI 031347Z 0314/0412 15014KT 3SM -FZDZ BR BKN006 OVC015
      TEMPO 0314/0316 1SM -FZRA BR
     FM031600 19014G22KT 3SM -RA BR BKN006 OVC012
     FM032300 24014G22KT 4SM -DZ BR SCT006 OVC015
     FM040400 29016KT P6SM OVC020=



000
FTUS43 KILX 031300 CCA
TAFPIA
TAF COR
KPIA 031347Z 0314/0412 17015KT 3SM BR BKN006 OVC012
      TEMPO 0314/0315 1 1/2SM -FZRA
     FM031600 19014G22KT 3SM BR BKN007 OVC015
     FM032100 25013G19KT P6SM OVC015
     FM040200 30013KT P6SM OVC020=



000
FTUS43 KILX 031300 AAA
TAFCMI
TAF AMD
KCMI 031347Z 0314/0412 15014KT 3SM -FZDZ BR BKN006 OVC015
      TEMPO 0314/0316 1SM -FZRA BR
     FM031600 19014G22KT 3SM -RA BR BKN006 OVC012
     FM032300 24014G22KT 4SM -DZ BR SCT006 OVC015
     FM040400 29016KT P6SM OVC020=



000
FTUS43 KILX 031300 CCA
TAFPIA
TAF COR
KPIA 031347Z 0314/0412 17015KT 3SM BR BKN006 OVC012
      TEMPO 0314/0315 1 1/2SM -FZRA
     FM031600 19014G22KT 3SM BR BKN007 OVC015
     FM032100 25013G19KT P6SM OVC015
     FM040200 30013KT P6SM OVC020=



000
FTUS43 KILX 031300 AAA
TAFDEC
TAF AMD
KDEC 031344Z 0314/0412 17015KT 3SM BR BKN006 OVC015
      TEMPO 0314/0315 1 1/2SM -FZDZ BR
     FM031500 18014G22KT 3SM -DZ BR BKN006 OVC015
     FM032200 25013G21KT 5SM BR OVC015
     FM040300 29015KT P6SM OVC020=



000
FTUS43 KILX 031300 AAA
TAFDEC
TAF AMD
KDEC 031344Z 0314/0412 17015KT 3SM BR BKN006 OVC015
      TEMPO 0314/0315 1 1/2SM -FZDZ BR
     FM031500 18014G22KT 3SM -DZ BR BKN006 OVC015
     FM032200 25013G21KT 5SM BR OVC015
     FM040300 29015KT P6SM OVC020=



000
FTUS43 KILX 031300 AAA
TAFBMI
TAF AMD
KBMI 031342Z 0314/0412 17017KT 3SM -FZDZ BR OVC005
      TEMPO 0314/0316 1 1/2SM -FZDZ BR
     FM031600 18013G21KT 2SM -FZDZ BR OVC006
     FM031700 19016G23KT 3SM -DZ BR BKN006 OVC015
     FM032200 24016G23KT P6SM OVC012
     FM040300 30016KT P6SM OVC020=



000
FTUS43 KILX 031300 AAA
TAFBMI
TAF AMD
KBMI 031342Z 0314/0412 17017KT 3SM -FZDZ BR OVC005
      TEMPO 0314/0316 1 1/2SM -FZDZ BR
     FM031600 18013G21KT 2SM -FZDZ BR OVC006
     FM031700 19016G23KT 3SM -DZ BR BKN006 OVC015
     FM032200 24016G23KT P6SM OVC012
     FM040300 30016KT P6SM OVC020=



000
FTUS43 KILX 031300 AAA
TAFPIA
TAF AMD
KPIA 031307Z 0313/0412 17015KT 3SM BR BKN006 OVC012
      TEMPO 0313/0315 1 1/2SM -FZDZ
     FM031600 19014G22KT 3SM BR BKN007 OVC015
     FM032100 25013G19KT P6SM OVC015
     FM040200 30013KT P6SM OVC020=



000
FTUS43 KILX 031100
TAFCMI
TAF
KCMI 031135Z 0312/0412 12014KT 5SM BR OVC025
      TEMPO 0312/0315 2SM -FZDZ BR BKN012
     FM031600 18014G22KT 3SM -RA BR BKN006 OVC012
     FM032300 24014G22KT 4SM -DZ BR SCT006 OVC015
     FM040400 29016KT P6SM OVC020=



000
FTUS43 KILX 031100
TAFBMI
TAF
KBMI 031135Z 0312/0412 16012KT 3SM -FZDZ BR OVC015
      TEMPO 0312/0315 1 1/2SM -FZRA BR BKN007
     FM031500 18013G21KT 2SM -FZRA BR OVC007
     FM031800 18016G23KT 3SM -RA BR BKN007 OVC015
     FM032200 25016KT P6SM OVC012
     FM040300 30016KT P6SM OVC020=



000
FTUS43 KILX 031100
TAFSPI
TAF
KSPI 031135Z 0312/0412 15012KT P6SM OVC020
      TEMPO 0312/0315 4SM -FZDZ BR BKN012
     FM031500 18014G22KT 3SM -RA BR BKN007 OVC015
     FM032100 25013G21KT 5SM BR OVC015
     FM040200 29015KT P6SM OVC020=



000
FTUS43 KILX 031100
TAFBMI
TAF
KBMI 031135Z 0312/0412 16012KT 3SM -FZDZ BR OVC015
      TEMPO 0312/0315 1 1/2SM -FZRA BR BKN007
     FM031500 18013G21KT 2SM -FZRA BR OVC007
     FM031800 18016G23KT 3SM -RA BR BKN007 OVC015
     FM032200 25016KT P6SM OVC012
     FM040300 30016KT P6SM OVC020=



000
FTUS43 KILX 031100
TAFPIA
TAF
KPIA 031135Z 0312/0412 17008KT 3SM BR OVC014
      TEMPO 0312/0314 1 1/2SM -FZDZ BKN007
     FM031600 19014G22KT 3SM -RA BR BKN007 OVC015
     FM032100 24013G19KT P6SM OVC015
     FM040200 30013KT P6SM OVC020=



000
FTUS43 KILX 031100
TAFDEC
TAF
KDEC 031135Z 0312/0412 15012KT P6SM OVC020
      TEMPO 0312/0315 4SM -FZDZ BR BKN012
     FM031500 18014G22KT 3SM -RA BR BKN007 OVC015
     FM032200 25013G21KT 5SM BR OVC015
     FM040300 29015KT P6SM OVC020=



000
FTUS43 KILX 031100
TAFSPI
TAF
KSPI 031135Z 0312/0412 15012KT P6SM OVC020
      TEMPO 0312/0315 4SM -FZDZ BR BKN012
     FM031500 18014G22KT 3SM -RA BR BKN007 OVC015
     FM032100 25013G21KT 5SM BR OVC015
     FM040200 29015KT P6SM OVC020=



000
FTUS43 KILX 031100
TAFCMI
TAF
KCMI 031135Z 0312/0412 12014KT 5SM BR OVC025
      TEMPO 0312/0315 2SM -FZDZ BR BKN012
     FM031600 18014G22KT 3SM -RA BR BKN006 OVC012
     FM032300 24014G22KT 4SM -DZ BR SCT006 OVC015
     FM040400 29016KT P6SM OVC020=



000
FTUS43 KILX 031100
TAFDEC
TAF
KDEC 031135Z 0312/0412 15012KT P6SM OVC020
      TEMPO 0312/0315 4SM -FZDZ BR BKN012
     FM031500 18014G22KT 3SM -RA BR BKN007 OVC015
     FM032200 25013G21KT 5SM BR OVC015
     FM040300 29015KT P6SM OVC020=



000
FTUS43 KILX 031100
TAFPIA
TAF
KPIA 031135Z 0312/0412 17008KT 3SM BR OVC014
      TEMPO 0312/0314 1 1/2SM -FZDZ BKN007
     FM031600 19014G22KT 3SM -RA BR BKN007 OVC015
     FM032100 24013G19KT P6SM OVC015
     FM040200 30013KT P6SM OVC020=



000
FTUS43 KILX 031000 AAB
TAFPIA
TAF AMD
KPIA 031059Z 0311/0406 17008KT 3SM BR OVC014
      TEMPO 0311/0314 1 1/2SM -FZDZ BKN007
     FM031600 19014G22KT 3SM -RA BR BKN007 OVC015
     FM040000 27009KT P6SM OVC015=



000
FTUS43 KILX 031000 AAB
TAFPIA
TAF AMD
KPIA 031059Z 0311/0406 17008KT 3SM BR OVC014
      TEMPO 0311/0314 1 1/2SM -FZDZ BKN007
     FM031600 19014G22KT 3SM -RA BR BKN007 OVC015
     FM040000 27009KT P6SM OVC015=



000
FTUS43 KILX 031000 AAA
TAFBMI
TAF AMD
KBMI 031018Z 0310/0406 16012KT P6SM OVC025
      TEMPO 0311/0314 3SM -FZDZ BR OVC012
     FM031400 17017KT 2SM -FZDZ BR OVC007
     FM031800 18015G23KT 3SM -RA BR BKN007 OVC015
     FM040100 27010KT P6SM OVC012=



000
FTUS43 KILX 031000 AAA
TAFBMI
TAF AMD
KBMI 031018Z 0310/0406 16012KT P6SM OVC025
      TEMPO 0311/0314 3SM -FZDZ BR OVC012
     FM031400 17017KT 2SM -FZDZ BR OVC007
     FM031800 18015G23KT 3SM -RA BR BKN007 OVC015
     FM040100 27010KT P6SM OVC012=



000
FTUS43 KILX 030900 AAB
TAFCMI
TAF AMD
KCMI 030933Z 0310/0406 13014KT P6SM OVC025
      TEMPO 0311/0314 3SM -FZDZ BR BKN015
     FM031600 18014G22KT 3SM -RA BR OVC012
     FM040200 27014KT P6SM OVC012=



000
FTUS43 KILX 030900 AAB
TAFCMI
TAF AMD
KCMI 030933Z 0310/0406 13014KT P6SM OVC025
      TEMPO 0311/0314 3SM -FZDZ BR BKN015
     FM031600 18014G22KT 3SM -RA BR OVC012
     FM040200 27014KT P6SM OVC012=



000
FTUS43 KILX 030900 AAA
TAFDEC
TAF AMD
KDEC 030932Z 0310/0406 14010KT P6SM OVC025
      TEMPO 0310/0313 4SM -FZDZ BR BKN015
     FM031500 18014G22KT 3SM -RA BR SCT006 OVC015
     FM040100 27012KT P6SM OVC015=



000
FTUS43 KILX 030900 AAA
TAFDEC
TAF AMD
KDEC 030932Z 0310/0406 14010KT P6SM OVC025
      TEMPO 0310/0313 4SM -FZDZ BR BKN015
     FM031500 18014G22KT 3SM -RA BR SCT006 OVC015
     FM040100 27012KT P6SM OVC015=



000
FTUS43 KILX 030900 AAA
TAFSPI
TAF AMD
KSPI 030931Z 0310/0406 14008KT P6SM OVC025
      TEMPO 0310/0313 4SM -FZDZ BR BKN012
     FM031400 18014G22KT 3SM -RA BR SCT006 OVC015
     FM032300 27010KT P6SM OVC015=



000
FTUS43 KILX 030900 AAA
TAFSPI
TAF AMD
KSPI 030931Z 0310/0406 14008KT P6SM OVC025
      TEMPO 0310/0313 4SM -FZDZ BR BKN012
     FM031400 18014G22KT 3SM -RA BR SCT006 OVC015
     FM032300 27010KT P6SM OVC015=



000
FTUS43 KILX 030700 AAA
TAFCMI
TAF AMD
KCMI 030743Z 0308/0406 12013KT 6SM -FZRAPL OVC040
     FM030800 14009KT 5SM -FZRAPL BR OVC035
     FM031200 15011KT 2SM -FZRA BR OVC007
     FM031600 19014G22KT 3SM -RA BR OVC012
     FM040200 27014KT P6SM OVC012=



000
FTUS43 KILX 030700 AAA
TAFCMI
TAF AMD
KCMI 030743Z 0308/0406 12013KT 6SM -FZRAPL OVC040
     FM030800 14009KT 5SM -FZRAPL BR OVC035
     FM031200 15011KT 2SM -FZRA BR OVC007
     FM031600 19014G22KT 3SM -RA BR OVC012
     FM040200 27014KT P6SM OVC012=



000
FTUS43 KILX 030500 AAA
TAFPIA
TAF AMD
KPIA 030548Z 0306/0406 13008KT P6SM OVC050
      TEMPO 0306/0307 -FZRAPL
     FM030700 14008KT 3SM -FZRAPL BR OVC035
     FM031000 15011KT 2SM -FZRA BR OVC008
     FM031500 19014G22KT 3SM -RA BR OVC015
     FM040000 27009KT P6SM OVC015=



000
FTUS43 KILX 030500 AAA
TAFPIA
TAF AMD
KPIA 030548Z 0306/0406 13008KT P6SM OVC050
      TEMPO 0306/0307 -FZRAPL
     FM030700 14008KT 3SM -FZRAPL BR OVC035
     FM031000 15011KT 2SM -FZRA BR OVC008
     FM031500 19014G22KT 3SM -RA BR OVC015
     FM040000 27009KT P6SM OVC015=



000
FTUS43 KILX 030500
TAFCMI
TAF
KCMI 030539Z 0306/0406 12008KT P6SM OVC120
     FM030800 13008KT P6SM OVC050
      TEMPO 0308/0309 -FZRAPL
     FM030900 14009KT 3SM -FZRAPL BR OVC035
     FM031200 15011KT 2SM -FZRA BR OVC007
     FM031600 19014G22KT 3SM -RA BR OVC012
     FM040200 27014KT P6SM OVC012=



000
FTUS43 KILX 030500
TAFBMI
TAF
KBMI 030539Z 0306/0406 12009KT P6SM OVC120
     FM030700 13009KT P6SM OVC050
      TEMPO 0307/0308 -FZRAPL
     FM030800 14012KT 3SM -FZRAPL BR OVC035
     FM031100 15012KT 2SM -FZRA BR OVC007
     FM031600 19015G23KT 3SM -RA BR OVC012
     FM040100 27010KT P6SM OVC012=



000
FTUS43 KILX 030500
TAFPIA
TAF
KPIA 030539Z 0306/0406 12008KT P6SM OVC120
     FM030700 13008KT P6SM OVC050
      TEMPO 0307/0308 -FZRAPL
     FM030800 14008KT 3SM -FZRAPL BR OVC035
     FM031100 15011KT 2SM -FZRA BR OVC008
     FM031600 19014G22KT 3SM -RA BR OVC015
     FM040000 27009KT P6SM OVC015=



000
FTUS43 KILX 030500
TAFSPI
TAF
KSPI 030539Z 0306/0406 12008KT P6SM OVC050
      TEMPO 0306/0307 -FZRAPL
     FM030700 14008KT 3SM -FZRAPL BR OVC035
     FM031000 15011KT 2SM -FZRA BR OVC008
     FM031400 19014G22KT 3SM -RA BR OVC015
     FM032300 27010KT P6SM OVC015=



000
FTUS43 KILX 030500
TAFDEC
TAF
KDEC 030539Z 0306/0406 12008KT P6SM OVC120
     FM030700 13008KT P6SM OVC050
      TEMPO 0307/0308 -FZRAPL
     FM030800 14008KT 3SM -FZRAPL BR OVC035
     FM031100 15011KT 2SM -FZRA BR OVC008
     FM031500 19014G22KT 3SM -RA BR OVC015
     FM040100 27012KT P6SM OVC015=



000
FTUS43 KILX 030500
TAFCMI
TAF
KCMI 030539Z 0306/0406 12008KT P6SM OVC120
     FM030800 13008KT P6SM OVC050
      TEMPO 0308/0309 -FZRAPL
     FM030900 14009KT 3SM -FZRAPL BR OVC035
     FM031200 15011KT 2SM -FZRA BR OVC007
     FM031600 19014G22KT 3SM -RA BR OVC012
     FM040200 27014KT P6SM OVC012=



000
FTUS43 KILX 030500
TAFDEC
TAF
KDEC 030539Z 0306/0406 12008KT P6SM OVC120
     FM030700 13008KT P6SM OVC050
      TEMPO 0307/0308 -FZRAPL
     FM030800 14008KT 3SM -FZRAPL BR OVC035
     FM031100 15011KT 2SM -FZRA BR OVC008
     FM031500 19014G22KT 3SM -RA BR OVC015
     FM040100 27012KT P6SM OVC015=



000
FTUS43 KILX 030500
TAFBMI
TAF
KBMI 030539Z 0306/0406 12009KT P6SM OVC120
     FM030700 13009KT P6SM OVC050
      TEMPO 0307/0308 -FZRAPL
     FM030800 14012KT 3SM -FZRAPL BR OVC035
     FM031100 15012KT 2SM -FZRA BR OVC007
     FM031600 19015G23KT 3SM -RA BR OVC012
     FM040100 27010KT P6SM OVC012=



000
FTUS43 KILX 030500
TAFPIA
TAF
KPIA 030539Z 0306/0406 12008KT P6SM OVC120
     FM030700 13008KT P6SM OVC050
      TEMPO 0307/0308 -FZRAPL
     FM030800 14008KT 3SM -FZRAPL BR OVC035
     FM031100 15011KT 2SM -FZRA BR OVC008
     FM031600 19014G22KT 3SM -RA BR OVC015
     FM040000 27009KT P6SM OVC015=



000
FTUS43 KILX 030500
TAFSPI
TAF
KSPI 030539Z 0306/0406 12008KT P6SM OVC050
      TEMPO 0306/0307 -FZRAPL
     FM030700 14008KT 3SM -FZRAPL BR OVC035
     FM031000 15011KT 2SM -FZRA BR OVC008
     FM031400 19014G22KT 3SM -RA BR OVC015
     FM032300 27010KT P6SM OVC015=



000
FTUS43 KILX 022300
TAFSPI
TAF
KSPI 022338Z 0300/0324 14008KT P6SM OVC090
     FM030600 14010KT P6SM OVC040
     FM030800 15011KT 3SM -FZRAPL BR OVC006
     FM031500 19014G22KT 4SM -RA BR OVC008=



000
FTUS43 KILX 022300
TAFCMI
TAF
KCMI 022338Z 0300/0324 13006KT P6SM OVC090
     FM030800 14010KT P6SM OVC040
     FM031000 15011KT 3SM -FZRAPL BR OVC005
     FM031600 19014G22KT 4SM -RA BR OVC007=



000
FTUS43 KILX 022300
TAFDEC
TAF
KDEC 022338Z 0300/0324 13008KT P6SM OVC090
     FM030700 14010KT P6SM OVC040
     FM030900 15011KT 3SM -FZRAPL BR OVC006
     FM031500 19014G22KT 4SM -RA BR OVC008=



000
FTUS43 KILX 022300
TAFPIA
TAF
KPIA 022338Z 0300/0324 14008KT P6SM OVC090
     FM030700 15010KT P6SM OVC040
     FM030900 15011KT 3SM -FZRAPL BR OVC006
     FM031600 19014G22KT 4SM -RA BR OVC008=



000
FTUS43 KILX 022300
TAFBMI
TAF
KBMI 022338Z 0300/0324 14008KT P6SM OVC090
     FM030700 14010KT P6SM OVC040
     FM030900 15012KT 3SM -FZRAPL BR OVC005
     FM031600 19015G23KT 4SM -RA BR OVC007=



000
FTUS43 KILX 021700
TAFBMI
TAF
KBMI 021735Z 0218/0318 VRB05KT P6SM SCT100 BKN200
     FM030500 13010KT P6SM OVC080
     FM030900 15014KT 6SM -FZRAPL BR OVC025
     FM031600 16016KT 6SM BR OVC025
      TEMPO 0316/0318 4SM -RA BR OVC015=



000
FTUS43 KILX 021700
TAFDEC
TAF
KDEC 021735Z 0218/0318 VRB04KT P6SM SCT100 BKN200
     FM030500 14010KT P6SM OVC090
     FM030900 15013KT 6SM -FZRAPL BR SCT012 OVC025
     FM031500 16016KT P6SM OVC025
      TEMPO 0315/0318 6SM -RA BR OVC025=



000
FTUS43 KILX 021700
TAFCMI
TAF
KCMI 021735Z 0218/0318 VRB04KT P6SM SCT100 BKN200
     FM030500 14010KT P6SM OVC090
     FM031000 15013KT 6SM -FZRAPL BR SCT012 OVC025
     FM031600 17015KT P6SM OVC025
      TEMPO 0316/0318 P6SM -RA OVC020=



000
FTUS43 KILX 021700
TAFPIA
TAF
KPIA 021735Z 0218/0318 VRB04KT P6SM SCT100 BKN200
     FM030400 12004KT P6SM OVC090
     FM030800 15008KT 6SM -FZRAPL BR SCT010 OVC025
     FM031500 16016KT 6SM BR OVC025
      TEMPO 0315/0318 4SM -RA BR OVC015=



000
FTUS43 KILX 021700
TAFSPI
TAF
KSPI 021735Z 0218/0318 VRB04KT P6SM SCT100 BKN200
     FM030400 13010KT P6SM OVC090
     FM030800 15013KT 6SM -FZRAPL BR SCT012 OVC025
     FM031500 16016KT P6SM OVC025
      TEMPO 0315/0318 6SM -RA BR OVC025=



000
FTUS43 KILX 021700
TAFBMI
TAF
KBMI 021735Z 0218/0318 VRB05KT P6SM SCT100 BKN200
     FM030500 13010KT P6SM OVC080
     FM030900 15014KT 6SM -FZRAPL BR OVC025
     FM031600 16016KT 6SM BR OVC025
      TEMPO 0316/0318 4SM -RA BR OVC015=



000
FTUS43 KILX 021700
TAFDEC
TAF
KDEC 021735Z 0218/0318 VRB04KT P6SM SCT100 BKN200
     FM030500 14010KT P6SM OVC090
     FM030900 15013KT 6SM -FZRAPL BR SCT012 OVC025
     FM031500 16016KT P6SM OVC025
      TEMPO 0315/0318 6SM -RA BR OVC025=



000
FTUS43 KILX 021700
TAFCMI
TAF
KCMI 021735Z 0218/0318 VRB04KT P6SM SCT100 BKN200
     FM030500 14010KT P6SM OVC090
     FM031000 15013KT 6SM -FZRAPL BR SCT012 OVC025
     FM031600 17015KT P6SM OVC025
      TEMPO 0316/0318 P6SM -RA OVC020=



000
FTUS43 KILX 021700
TAFPIA
TAF
KPIA 021735Z 0218/0318 VRB04KT P6SM SCT100 BKN200
     FM030400 12004KT P6SM OVC090
     FM030800 15008KT 6SM -FZRAPL BR SCT010 OVC025
     FM031500 16016KT 6SM BR OVC025
      TEMPO 0315/0318 4SM -RA BR OVC015=



000
FTUS43 KILX 021700
TAFSPI
TAF
KSPI 021735Z 0218/0318 VRB04KT P6SM SCT100 BKN200
     FM030400 13010KT P6SM OVC090
     FM030800 15013KT 6SM -FZRAPL BR SCT012 OVC025
     FM031500 16016KT P6SM OVC025
      TEMPO 0315/0318 6SM -RA BR OVC025=



000
FTUS43 KILX 021100
TAFCMI
TAF
KCMI 021133Z 0212/0312 VRB04KT 4SM BR BKN200
     FM021400 VRB04KT P6SM SCT100 BKN200
     FM030500 14010KT P6SM OVC090
     FM031000 15013KT 6SM -FZRAPL BR SCT012 OVC025=



000
FTUS43 KILX 021100
TAFSPI
TAF
KSPI 021133Z 0212/0312 VRB04KT 5SM BR BKN200
     FM021400 VRB04KT P6SM SCT100 BKN200
     FM030400 13010KT P6SM OVC090
     FM030800 15013KT 6SM -FZRAPL BR SCT012 OVC025=



000
FTUS43 KILX 021100
TAFBMI
TAF
KBMI 021133Z 0212/0312 29007KT 6SM BR BKN200
     FM021400 VRB05KT P6SM SCT100 BKN200
     FM030500 13010KT P6SM OVC080
     FM030900 15014KT 6SM -FZRAPL BR OVC025=



000
FTUS43 KILX 021100
TAFPIA
TAF
KPIA 021133Z 0212/0312 VRB04KT P6SM BKN200
     FM021500 VRB04KT P6SM SCT100 BKN200
     FM030400 12004KT P6SM OVC090
     FM030800 15008KT 6SM -FZRAPL BR SCT010 OVC025=



000
FTUS43 KILX 021100
TAFCMI
TAF
KCMI 021133Z 0212/0312 VRB04KT 4SM BR BKN200
     FM021400 VRB04KT P6SM SCT100 BKN200
     FM030500 14010KT P6SM OVC090
     FM031000 15013KT 6SM -FZRAPL BR SCT012 OVC025=



000
FTUS43 KILX 021100
TAFDEC
TAF
KDEC 021133Z 0212/0312 VRB04KT 5SM BR BKN200
     FM021400 VRB04KT P6SM SCT100 BKN200
     FM030500 14010KT P6SM OVC090
     FM030900 15013KT 6SM -FZRAPL BR SCT012 OVC025=



000
FTUS43 KILX 021100
TAFSPI
TAF
KSPI 021133Z 0212/0312 VRB04KT 5SM BR BKN200
     FM021400 VRB04KT P6SM SCT100 BKN200
     FM030400 13010KT P6SM OVC090
     FM030800 15013KT 6SM -FZRAPL BR SCT012 OVC025=



000
FTUS43 KILX 021100
TAFBMI
TAF
KBMI 021133Z 0212/0312 29007KT 6SM BR BKN200
     FM021400 VRB05KT P6SM SCT100 BKN200
     FM030500 13010KT P6SM OVC080
     FM030900 15014KT 6SM -FZRAPL BR OVC025=



000
FTUS43 KILX 021100
TAFPIA
TAF
KPIA 021133Z 0212/0312 VRB04KT P6SM BKN200
     FM021500 VRB04KT P6SM SCT100 BKN200
     FM030400 12004KT P6SM OVC090
     FM030800 15008KT 6SM -FZRAPL BR SCT010 OVC025=



000
FTUS43 KILX 021100
TAFDEC
TAF
KDEC 021133Z 0212/0312 VRB04KT 5SM BR BKN200
     FM021400 VRB04KT P6SM SCT100 BKN200
     FM030500 14010KT P6SM OVC090
     FM030900 15013KT 6SM -FZRAPL BR SCT012 OVC025=



000
FTUS43 KILX 020500
TAFCMI
TAF
KCMI 020524Z 0206/0306 27006KT P6SM BKN200
     FM021800 VRB05KT P6SM BKN120=



000
FTUS43 KILX 020500
TAFDEC
TAF
KDEC 020524Z 0206/0306 27006KT P6SM BKN200
     FM021800 VRB04KT P6SM BKN120=



000
FTUS43 KILX 020500
TAFBMI
TAF
KBMI 020524Z 0206/0306 27008KT P6SM BKN200
     FM021800 VRB05KT P6SM BKN100=



000
FTUS43 KILX 020500
TAFSPI
TAF
KSPI 020524Z 0206/0306 27006KT P6SM BKN200
     FM021700 VRB04KT P6SM BKN100=



000
FTUS43 KILX 020500
TAFSPI
TAF
KSPI 020524Z 0206/0306 27006KT P6SM BKN200
     FM021700 VRB04KT P6SM BKN100=



000
FTUS43 KILX 020500
TAFPIA
TAF
KPIA 020524Z 0206/0306 27005KT P6SM BKN200
     FM021700 VRB04KT P6SM BKN100=



000
FTUS43 KILX 020200 AAA
TAFBMI
TAF AMD
KBMI 020217Z 0202/0224 29008KT P6SM SCT015 BKN200
     FM021500 VRB03KT P6SM BKN150=



000
FTUS43 KILX 020200 AAA
TAFBMI
TAF AMD
KBMI 020217Z 0202/0224 29008KT P6SM SCT015 BKN200
     FM021500 VRB03KT P6SM BKN150=



000
FTUS43 KILX 020100 AAA
TAFPIA
TAF AMD
KPIA 020135Z 0202/0224 30005KT P6SM SCT025 BKN200
     FM021500 VRB03KT P6SM BKN120=



000
FTUS43 KILX 020100 AAA
TAFCMI
TAF AMD
KCMI 020134Z 0202/0224 30005KT P6SM SCT020 BKN200
     FM021500 VRB03KT P6SM BKN150=



000
FTUS43 KILX 020100 AAA
TAFSPI
TAF AMD
KSPI 020134Z 0202/0224 30006KT P6SM SCT025 BKN200
     FM021500 VRB03KT P6SM BKN120=



000
FTUS43 KILX 020100 AAA
TAFDEC
TAF AMD
KDEC 020134Z 0202/0224 30006KT P6SM SCT020 BKN200
     FM021500 VRB03KT P6SM BKN150=



000
FTUS43 KILX 012300 RRA
TAFDEC
TAF
KDEC 012341Z 0200/0224 30006KT P6SM BKN018
     FM020300 30010KT P6SM SCT020 BKN200
     FM021500 VRB03KT P6SM BKN150=



000
FTUS43 KILX 012300 RRA
TAFPIA
TAF
KPIA 012341Z 0200/0224 30008KT P6SM SCT025 BKN200
      TEMPO 0200/0203 BKN025
     FM021500 VRB03KT P6SM BKN120=



000
FTUS43 KILX 012300 RRA
TAFBMI
TAF
KBMI 012341Z 0200/0224 29008KT P6SM SCT015 BKN200
      TEMPO 0200/0204 BKN015
     FM021500 VRB03KT P6SM BKN150=



000
FTUS43 KILX 012300 RRA
TAFSPI
TAF
KSPI 012341Z 0200/0224 29006KT P6SM BKN025
     FM020300 29009KT P6SM SCT025 BKN200
     FM021500 VRB03KT P6SM BKN120=



000
FTUS43 KILX 012300 RRA
TAFCMI
TAF
KCMI 012341Z 0200/0224 30006KT P6SM BKN018
     FM020400 29012KT P6SM SCT020 BKN200
     FM021500 VRB03KT P6SM BKN150=



000
FTUS43 KILX 012300 RRA
TAFDEC
TAF
KDEC 012341Z 0200/0224 30006KT P6SM BKN018
     FM020300 30010KT P6SM SCT020 BKN200
     FM021500 VRB03KT P6SM BKN150=



000
FTUS43 KILX 012300 RRA
TAFPIA
TAF
KPIA 012341Z 0200/0224 30008KT P6SM SCT025 BKN200
      TEMPO 0200/0203 BKN025
     FM021500 VRB03KT P6SM BKN120=



000
FTUS43 KILX 012300 RRA
TAFBMI
TAF
KBMI 012341Z 0200/0224 29008KT P6SM SCT015 BKN200
      TEMPO 0200/0204 BKN015
     FM021500 VRB03KT P6SM BKN150=



000
FTUS43 KILX 012300 RRA
TAFSPI
TAF
KSPI 012341Z 0200/0224 29006KT P6SM BKN025
     FM020300 29009KT P6SM SCT025 BKN200
     FM021500 VRB03KT P6SM BKN120=



000
FTUS43 KILX 012300 RRA
TAFCMI
TAF
KCMI 012341Z 0200/0224 30006KT P6SM BKN018
     FM020400 29012KT P6SM SCT020 BKN200
     FM021500 VRB03KT P6SM BKN150=



    US Dept of Commerce
    National Oceanic and Atmospheric Administration
    National Weather Service
    1325 East West Highway
    Silver Spring, MD 20910
    Page Author: NWS Internet Services Team
Disclaimer
Information Quality
Credits
Glossary
Privacy Policy
Freedom of Information Act (FOIA)
About Us
Career Opportunities